Time;durP1;ratioP1;P1;durP2;ratioP2;P2;SDS_P1;SDS_P2;PMS_P1;PMS_P2;Temp;Humidity;BMP_temperature;BMP_pressure;BME280_temperature;BME280_humidity;BME280_pressure;Samples;Min_cycle;Max_cycle;Signal;HPM_P1;HPM_P2
2023/07/04 00:01:19;;;;;;;26.33;21.30;;;22.60;99.90;;;;;;5083744;28;21194;-72
2023/07/04 00:03:51;;;;;;;31.48;25.42;;;22.70;99.90;;;;;;5062729;28;20986;-72
2023/07/04 00:06:18;;;;;;;29.83;25.03;;;22.70;99.90;;;;;;5080134;28;20415;-72
2023/07/04 00:08:45;;;;;;;30.85;25.05;;;22.70;99.90;;;;;;5071161;28;20407;-72
2023/07/04 00:11:12;;;;;;;30.50;26.08;;;22.70;99.90;;;;;;5077573;28;20419;-72
2023/07/04 00:13:39;;;;;;;31.45;25.85;;;22.70;99.90;;;;;;5077917;28;20471;-72
2023/07/04 00:16:11;;;;;;;31.50;26.05;;;22.70;99.90;;;;;;5073190;28;20739;-72
2023/07/04 00:18:38;;;;;;;29.95;23.08;;;22.70;99.90;;;;;;5078373;28;20424;-72
2023/07/04 00:21:12;;;;;;;25.05;19.88;;;22.70;99.90;;;;;;5061536;28;20414;-72
2023/07/04 00:23:38;;;;;;;22.55;17.75;;;22.70;99.90;;;;;;5071815;28;20490;-72
2023/07/04 00:26:07;;;;;;;19.45;15.45;;;22.70;99.90;;;;;;5072262;28;20410;-72
2023/07/04 00:28:38;;;;;;;19.20;15.73;;;22.80;99.90;;;;;;5061452;28;20487;-72
2023/07/04 00:31:07;;;;;;;18.85;15.18;;;22.70;99.90;;;;;;5074134;28;20410;-72
2023/07/04 00:33:33;;;;;;;19.75;15.20;;;22.70;99.90;;;;;;5076509;28;20502;-72
2023/07/04 00:36:07;;;;;;;17.90;12.88;;;22.60;99.90;;;;;;5079030;28;20415;-72
2023/07/04 00:38:36;;;;;;;22.67;12.20;;;22.60;99.90;;;;;;5059284;28;20517;-72
2023/07/04 00:41:08;;;;;;;22.25;12.20;;;22.60;99.90;;;;;;5070260;28;20411;-72
2023/07/04 00:43:59;;;;;;;18.52;11.43;;;22.60;99.90;;;;;;5059962;28;20522;-72
2023/07/04 00:46:43;;;;;;;23.25;11.85;;;22.70;99.90;;;;;;5075355;28;20469;-72
2023/07/04 00:49:37;;;;;;;25.90;12.07;;;22.70;99.90;;;;;;5063781;28;20404;-72
2023/07/04 00:52:31;;;;;;;23.10;10.70;;;22.70;99.90;;;;;;5076694;28;20509;-72
2023/07/04 00:55:01;;;;;;;21.83;10.25;;;22.80;99.90;;;;;;5070348;28;20458;-72
2023/07/04 00:57:31;;;;;;;14.77;10.00;;;22.70;99.90;;;;;;5076493;28;20821;-72
2023/07/04 01:00:04;;;;;;;12.02;9.25;;;22.70;99.90;;;;;;5073014;28;20512;-72
2023/07/04 01:02:33;;;;;;;15.15;9.05;;;22.70;99.60;;;;;;5072201;28;20410;-72
2023/07/04 01:05:05;;;;;;;13.50;8.95;;;22.70;99.90;;;;;;5080776;28;20822;-72
2023/07/04 01:08:04;;;;;;;12.10;8.68;;;22.60;99.80;;;;;;5075755;28;20436;-72
2023/07/04 01:10:40;;;;;;;12.68;8.70;;;22.60;99.70;;;;;;5071661;28;20417;-72
2023/07/04 01:13:34;;;;;;;12.15;9.00;;;22.60;99.90;;;;;;5070477;28;20415;-73
2023/07/04 01:16:09;;;;;;;12.50;9.02;;;22.50;99.70;;;;;;5076114;28;20491;-74
2023/07/04 01:18:37;;;;;;;10.38;8.50;;;22.50;99.80;;;;;;5074518;28;20427;-74
2023/07/04 01:21:08;;;;;;;12.65;9.30;;;22.40;99.80;;;;;;5055247;28;20501;-72
2023/07/04 01:23:47;;;;;;;12.23;8.48;;;22.30;99.80;;;;;;5072816;28;20410;-72
2023/07/04 01:26:32;;;;;;;12.05;9.40;;;22.30;99.70;;;;;;5077193;28;20512;-72
2023/07/04 01:29:03;;;;;;;13.77;9.10;;;22.20;99.80;;;;;;5106159;27;20439;-72
2023/07/04 01:31:31;;;;;;;11.80;9.40;;;22.10;99.90;;;;;;5078555;28;21291;-72
2023/07/04 01:33:58;;;;;;;12.90;9.43;;;22.10;99.90;;;;;;5083602;28;20828;-72
2023/07/04 01:36:30;;;;;;;12.13;10.00;;;22.10;99.90;;;;;;5059562;28;20427;-72
2023/07/04 01:38:57;;;;;;;13.45;10.40;;;22.00;99.90;;;;;;5081759;28;20410;-72
2023/07/04 01:41:24;;;;;;;13.75;10.15;;;22.00;99.90;;;;;;5074683;28;20407;-72
2023/07/04 01:44:05;;;;;;;15.30;10.50;;;22.00;99.90;;;;;;5072290;28;20471;-72
2023/07/04 01:46:34;;;;;;;14.02;11.13;;;22.00;99.90;;;;;;5070379;28;20471;-72
2023/07/04 01:49:01;;;;;;;15.02;11.23;;;22.10;99.90;;;;;;5086029;28;20828;-72
2023/07/04 01:51:32;;;;;;;14.40;11.20;;;22.10;99.90;;;;;;5080148;28;20495;-72
2023/07/04 01:53:59;;;;;;;16.52;12.65;;;22.10;99.90;;;;;;5078480;28;20428;-72
2023/07/04 01:56:27;;;;;;;16.10;12.40;;;22.20;99.90;;;;;;5079018;28;20450;-72
2023/07/04 01:58:53;;;;;;;16.30;12.38;;;22.20;99.90;;;;;;5079476;28;20404;-72
2023/07/04 02:01:20;;;;;;;16.87;12.77;;;22.20;99.90;;;;;;5072180;28;20477;-72
2023/07/04 02:03:47;;;;;;;16.63;12.82;;;22.20;99.90;;;;;;5079470;28;20841;-72
2023/07/04 02:06:15;;;;;;;15.90;12.80;;;22.10;99.90;;;;;;5075630;28;20412;-72
2023/07/04 02:08:41;;;;;;;16.13;13.27;;;22.10;99.90;;;;;;5077260;28;20427;-72
2023/07/04 02:11:07;;;;;;;16.38;13.07;;;22.10;99.90;;;;;;5074777;28;20830;-72
2023/07/04 02:13:33;;;;;;;18.42;13.52;;;22.10;99.90;;;;;;5078954;28;20480;-72
2023/07/04 02:16:00;;;;;;;17.05;13.18;;;22.00;99.90;;;;;;5072215;28;20411;-72
2023/07/04 02:18:26;;;;;;;16.20;12.90;;;22.00;99.90;;;;;;5069136;28;20411;-72
2023/07/04 02:20:53;;;;;;;18.67;12.40;;;22.00;99.90;;;;;;5089963;27;20419;-72
2023/07/04 02:23:19;;;;;;;14.03;11.60;;;22.10;99.90;;;;;;5077468;28;20402;-72
2023/07/04 02:25:45;;;;;;;16.05;11.57;;;22.10;99.90;;;;;;5075036;28;20925;-72
2023/07/04 02:28:12;;;;;;;17.90;11.63;;;22.20;99.90;;;;;;5078818;28;20411;-72
2023/07/04 02:30:38;;;;;;;15.68;11.98;;;22.20;99.90;;;;;;5077971;28;20427;-72
2023/07/04 02:33:05;;;;;;;16.07;12.03;;;22.20;99.90;;;;;;5074214;28;20962;-72
2023/07/04 02:35:32;;;;;;;17.60;11.85;;;22.20;99.90;;;;;;5076693;28;20455;-72
2023/07/04 02:37:58;;;;;;;15.52;11.73;;;22.20;99.90;;;;;;5062074;28;20514;-72
2023/07/04 02:40:24;;;;;;;19.67;11.45;;;22.20;99.90;;;;;;5070708;28;22069;-72
2023/07/04 02:42:51;;;;;;;14.35;11.30;;;22.20;99.90;;;;;;5060214;28;20423;-72
2023/07/04 02:45:17;;;;;;;15.97;11.23;;;22.10;99.90;;;;;;5083807;28;20915;-72
2023/07/04 02:47:43;;;;;;;13.85;10.77;;;22.20;99.90;;;;;;5078168;28;20497;-72
2023/07/04 02:50:09;;;;;;;12.75;10.50;;;22.20;99.90;;;;;;5074443;28;20445;-72
2023/07/04 02:52:36;;;;;;;15.98;10.68;;;22.20;99.90;;;;;;5073685;28;20421;-72
2023/07/04 02:55:02;;;;;;;13.00;10.17;;;22.20;99.90;;;;;;5065792;28;20427;-72
2023/07/04 02:57:28;;;;;;;12.60;9.68;;;22.30;99.70;;;;;;5070154;28;20413;-72
2023/07/04 02:59:55;;;;;;;13.80;9.80;;;22.30;99.70;;;;;;5061098;28;20406;-72
2023/07/04 03:02:21;;;;;;;13.95;8.82;;;22.40;99.50;;;;;;5069017;28;20423;-72
2023/07/04 03:04:51;;;;;;;13.37;8.30;;;22.50;99.30;;;;;;5083810;28;20408;-72
2023/07/04 03:07:18;;;;;;;11.82;8.10;;;22.50;99.20;;;;;;5061395;28;21104;-72
2023/07/04 03:09:45;;;;;;;12.57;7.57;;;22.60;99.00;;;;;;5078167;28;20447;-72
2023/07/04 03:12:11;;;;;;;11.88;7.45;;;22.60;99.00;;;;;;5082792;28;20417;-72
2023/07/04 03:14:37;;;;;;;19.15;7.47;;;22.70;98.80;;;;;;5070648;28;20406;-72
2023/07/04 03:17:03;;;;;;;10.68;6.53;;;22.70;98.70;;;;;;5086190;28;20572;-72
2023/07/04 03:19:30;;;;;;;11.88;7.10;;;22.80;98.90;;;;;;5069690;28;20423;-72
2023/07/04 03:21:56;;;;;;;10.93;6.22;;;22.80;98.80;;;;;;5085523;28;20523;-72
2023/07/04 03:24:22;;;;;;;12.80;6.85;;;22.90;98.80;;;;;;5085863;28;20881;-72
2023/07/04 03:26:48;;;;;;;13.82;6.78;;;22.90;98.90;;;;;;5072266;28;20430;-72
2023/07/04 03:29:15;;;;;;;13.88;7.28;;;22.90;98.80;;;;;;5067251;28;20411;-72
2023/07/04 03:31:41;;;;;;;14.55;7.30;;;23.00;98.90;;;;;;5075518;28;20406;-72
2023/07/04 03:34:07;;;;;;;12.45;7.72;;;23.10;98.90;;;;;;5077299;28;20494;-72
2023/07/04 03:36:33;;;;;;;12.90;7.50;;;23.10;99.00;;;;;;5105458;27;20420;-72
2023/07/04 03:39:00;;;;;;;10.27;7.07;;;23.10;99.10;;;;;;5059875;28;20420;-72
2023/07/04 03:41:26;;;;;;;14.15;7.25;;;23.20;99.10;;;;;;5059185;28;20415;-72
2023/07/04 03:43:52;;;;;;;11.57;6.88;;;23.20;99.10;;;;;;5067788;28;20533;-72
2023/07/04 03:46:19;;;;;;;11.07;7.07;;;23.20;99.10;;;;;;5078948;28;20410;-72
2023/07/04 03:48:45;;;;;;;14.33;7.10;;;23.30;99.10;;;;;;5058928;28;21114;-72
2023/07/04 03:51:11;;;;;;;12.38;6.45;;;23.30;99.20;;;;;;5085104;28;20402;-72
2023/07/04 03:53:37;;;;;;;13.55;7.10;;;23.30;99.20;;;;;;5069228;28;20526;-72
2023/07/04 03:56:08;;;;;;;15.43;7.25;;;23.40;99.30;;;;;;5093471;28;20502;-72
2023/07/04 03:58:34;;;;;;;10.30;6.93;;;23.40;99.50;;;;;;5078896;28;20460;-72
2023/07/04 04:01:06;;;;;;;11.13;6.75;;;23.40;99.60;;;;;;5076927;28;20900;-72
2023/07/04 04:03:39;;;;;;;11.52;7.05;;;23.50;99.80;;;;;;5100594;28;20621;-72
2023/07/04 04:06:08;;;;;;;13.73;7.43;;;23.50;99.90;;;;;;5065461;28;20491;-72
2023/07/04 04:08:35;;;;;;;11.93;7.38;;;23.50;99.90;;;;;;5072489;28;21277;-72
2023/07/04 04:11:03;;;;;;;11.35;7.53;;;23.60;99.90;;;;;;5066748;28;20417;-72
2023/07/04 04:13:29;;;;;;;15.07;7.80;;;23.60;99.90;;;;;;5080360;28;20428;-72
2023/07/04 04:15:55;;;;;;;10.32;7.25;;;23.60;99.90;;;;;;5059579;28;20415;-72
2023/07/04 04:18:22;;;;;;;14.27;7.60;;;23.60;99.90;;;;;;5062012;28;20410;-72
2023/07/04 04:20:48;;;;;;;12.80;7.57;;;23.60;99.90;;;;;;5089458;28;21052;-72
2023/07/04 04:23:15;;;;;;;13.23;7.53;;;23.60;99.90;;;;;;5083924;28;20415;-72
2023/07/04 04:25:42;;;;;;;12.18;7.80;;;23.60;99.90;;;;;;5081431;28;20415;-72
2023/07/04 04:28:11;;;;;;;11.95;7.55;;;23.70;99.90;;;;;;5068745;28;20406;-72
2023/07/04 04:30:37;;;;;;;13.18;8.05;;;23.70;99.90;;;;;;5073521;28;20495;-72
2023/07/04 04:33:04;;;;;;;13.25;7.80;;;23.70;99.90;;;;;;5108210;27;20407;-72
2023/07/04 04:35:31;;;;;;;13.45;7.72;;;23.80;99.90;;;;;;5070182;28;20409;-72
2023/07/04 04:37:57;;;;;;;12.60;7.72;;;23.80;99.90;;;;;;5089961;28;20512;-72
2023/07/04 04:40:24;;;;;;;12.05;7.72;;;23.80;99.90;;;;;;5086056;28;20417;-72
2023/07/04 04:42:55;;;;;;;13.43;8.02;;;23.80;99.90;;;;;;5076599;28;20983;-72
2023/07/04 04:45:23;;;;;;;9.52;8.18;;;23.90;99.90;;;;;;5072956;28;20405;-72
2023/07/04 04:47:53;;;;;;;10.57;8.02;;;23.90;99.90;;;;;;5077246;28;20501;-72
2023/07/04 04:50:22;;;;;;;15.13;8.77;;;24.00;99.90;;;;;;5059968;28;20469;-72
2023/07/04 04:52:49;;;;;;;14.75;9.30;;;24.00;99.90;;;;;;5078203;28;20403;-72
2023/07/04 04:55:17;;;;;;;11.57;8.95;;;24.00;99.90;;;;;;5083331;28;20840;-72
2023/07/04 04:57:44;;;;;;;13.95;10.75;;;24.00;99.90;;;;;;5060590;28;20449;-72
2023/07/04 05:00:13;;;;;;;15.27;11.02;;;24.10;99.90;;;;;;5078843;28;20452;-72
2023/07/04 05:02:39;;;;;;;16.15;12.23;;;24.10;99.90;;;;;;5073431;28;20406;-72
2023/07/04 05:05:06;;;;;;;20.17;14.05;;;24.20;99.90;;;;;;5073789;28;20416;-72
2023/07/04 05:07:33;;;;;;;19.17;14.82;;;24.20;99.90;;;;;;5069540;28;20476;-72
2023/07/04 05:10:02;;;;;;;20.53;15.40;;;24.20;99.90;;;;;;5069859;28;20423;-72
2023/07/04 05:12:29;;;;;;;18.30;15.25;;;24.30;99.90;;;;;;5057839;28;20512;-73
2023/07/04 05:14:55;;;;;;;23.40;16.35;;;24.30;99.90;;;;;;5078745;28;20410;-72
2023/07/04 05:17:23;;;;;;;22.75;16.40;;;24.30;99.90;;;;;;5064128;28;20486;-72
2023/07/04 05:19:50;;;;;;;19.17;14.83;;;24.40;99.90;;;;;;5074728;28;20418;-72
2023/07/04 05:22:18;;;;;;;20.58;14.32;;;24.50;99.90;;;;;;5053117;28;21209;-72
2023/07/04 05:24:45;;;;;;;22.48;15.30;;;24.50;99.90;;;;;;5074465;28;20846;-72
2023/07/04 05:27:11;;;;;;;24.65;16.63;;;24.50;99.90;;;;;;5067593;28;20401;-72
2023/07/04 05:29:37;;;;;;;22.20;18.33;;;24.50;99.90;;;;;;5049986;28;20415;-72
2023/07/04 05:32:04;;;;;;;24.00;18.97;;;24.60;99.90;;;;;;5080789;28;20495;-72
2023/07/04 05:34:31;;;;;;;25.60;18.10;;;24.70;99.90;;;;;;5074862;28;20407;-72
2023/07/04 05:36:57;;;;;;;22.90;17.83;;;24.70;99.90;;;;;;5079250;28;20420;-72
2023/07/04 05:39:23;;;;;;;21.83;18.02;;;24.70;99.90;;;;;;5071522;28;20437;-71
2023/07/04 05:41:49;;;;;;;20.33;16.75;;;24.80;99.90;;;;;;5078164;28;20406;-72
2023/07/04 05:44:17;;;;;;;22.42;16.95;;;24.90;99.90;;;;;;5080053;28;20976;-72
2023/07/04 05:46:43;;;;;;;23.20;17.45;;;24.90;99.90;;;;;;5085294;28;20439;-72
2023/07/04 05:49:09;;;;;;;22.08;16.25;;;25.10;99.90;;;;;;5076230;28;20430;-72
2023/07/04 05:51:35;;;;;;;21.02;15.07;;;25.20;99.90;;;;;;5076490;28;20464;-72
2023/07/04 05:54:02;;;;;;;19.98;14.88;;;25.20;99.90;;;;;;5076657;28;20511;-72
2023/07/04 05:56:32;;;;;;;21.70;15.13;;;25.30;99.90;;;;;;5076431;28;20409;-72
2023/07/04 05:59:01;;;;;;;18.27;14.53;;;25.40;99.90;;;;;;5062311;28;20928;-72
2023/07/04 06:01:41;;;;;;;20.83;13.68;;;25.40;99.90;;;;;;5067733;28;20406;-72
2023/07/04 06:04:10;;;;;;;16.95;13.68;;;25.40;99.90;;;;;;5061565;28;20551;-72
2023/07/04 06:07:06;;;;;;;17.88;13.95;;;25.50;99.90;;;;;;5077506;28;20411;-72
2023/07/04 06:09:32;;;;;;;16.10;13.65;;;25.60;99.90;;;;;;5069857;28;20421;-72
2023/07/04 06:11:58;;;;;;;19.17;13.27;;;25.70;99.90;;;;;;5093111;28;20504;-72
2023/07/04 06:14:27;;;;;;;15.40;13.07;;;25.70;99.90;;;;;;5084694;28;20404;-72
2023/07/04 06:16:55;;;;;;;16.15;12.98;;;25.80;99.90;;;;;;5078940;28;20427;-72
2023/07/04 06:19:21;;;;;;;17.20;14.00;;;25.80;99.90;;;;;;5073218;28;20413;-72
2023/07/04 06:21:48;;;;;;;19.05;13.82;;;25.90;99.90;;;;;;5075749;28;20473;-72
2023/07/04 06:24:17;;;;;;;16.25;13.75;;;25.90;99.90;;;;;;5074241;28;20491;-72
2023/07/04 06:26:45;;;;;;;16.48;12.75;;;25.90;99.90;;;;;;5077894;28;20407;-72
2023/07/04 06:29:11;;;;;;;16.90;13.48;;;26.00;99.90;;;;;;5061757;28;20537;-72
2023/07/04 06:31:41;;;;;;;16.95;13.20;;;26.00;99.90;;;;;;5087854;28;20401;-73
2023/07/04 06:34:08;;;;;;;15.32;12.38;;;26.10;99.90;;;;;;5070131;28;20424;-72
2023/07/04 06:36:35;;;;;;;17.88;12.98;;;26.10;99.90;;;;;;5073125;28;21175;-72
2023/07/04 06:39:02;;;;;;;16.25;13.05;;;26.20;99.90;;;;;;5074609;28;20408;-72
2023/07/04 06:41:28;;;;;;;17.38;12.52;;;26.30;99.90;;;;;;5071909;28;20477;-72
2023/07/04 06:43:55;;;;;;;15.48;12.82;;;26.30;99.90;;;;;;5087844;28;20408;-72
2023/07/04 06:46:21;;;;;;;15.67;13.07;;;26.40;99.90;;;;;;5075785;28;20500;-72
2023/07/04 06:48:50;;;;;;;17.23;12.52;;;26.40;99.90;;;;;;5058395;28;20413;-72
2023/07/04 06:51:18;;;;;;;16.65;12.60;;;26.40;99.90;;;;;;5069364;28;20409;-72
2023/07/04 06:53:46;;;;;;;17.88;12.50;;;26.50;99.90;;;;;;5073251;28;20411;-72
2023/07/04 06:56:20;;;;;;;14.40;12.20;;;26.50;99.90;;;;;;5052387;28;20949;-72
2023/07/04 06:58:52;;;;;;;14.77;12.23;;;26.60;99.90;;;;;;5069843;28;20428;-72
2023/07/04 07:01:26;;;;;;;15.52;12.65;;;26.60;99.90;;;;;;5051220;28;20416;-72
2023/07/04 07:03:54;;;;;;;14.27;11.52;;;26.60;99.90;;;;;;5053146;28;20923;-72
2023/07/04 07:06:21;;;;;;;15.85;12.18;;;26.70;99.90;;;;;;5064021;28;20479;-72
2023/07/04 07:08:48;;;;;;;17.55;12.48;;;26.90;99.90;;;;;;5067528;28;20412;-72
2023/07/04 07:11:17;;;;;;;14.05;11.25;;;27.00;99.90;;;;;;5065549;28;20496;-72
2023/07/04 07:13:44;;;;;;;18.50;11.85;;;27.10;99.90;;;;;;5076976;28;20455;-72
2023/07/04 07:16:39;;;;;;;17.60;11.70;;;27.20;99.90;;;;;;5089797;28;20412;-72
2023/07/04 07:19:06;;;;;;;16.20;11.50;;;27.30;99.90;;;;;;5072710;28;20493;-72
2023/07/04 07:21:32;;;;;;;14.73;11.38;;;27.40;99.90;;;;;;5073848;28;20409;-72
2023/07/04 07:24:01;;;;;;;13.43;11.00;;;27.50;99.90;;;;;;5058507;28;20514;-72
2023/07/04 07:26:28;;;;;;;15.32;11.38;;;27.60;99.90;;;;;;5065971;28;20498;-72
2023/07/04 07:28:54;;;;;;;14.83;11.40;;;27.60;99.90;;;;;;5076638;28;20422;-72
2023/07/04 07:31:25;;;;;;;16.43;11.37;;;27.70;99.90;;;;;;5069161;28;20498;-72
2023/07/04 07:33:52;;;;;;;16.85;11.15;;;27.80;99.90;;;;;;5057907;28;20423;-71
2023/07/04 07:36:41;;;;;;;13.77;11.27;;;27.80;99.90;;;;;;5100700;27;20696;-72
2023/07/04 07:39:11;;;;;;;13.50;10.70;;;27.90;99.90;;;;;;5067119;28;20441;-72
2023/07/04 07:41:42;;;;;;;14.77;11.05;;;28.00;99.90;;;;;;5077143;28;20415;-71
2023/07/04 07:44:13;;;;;;;15.95;11.43;;;28.10;99.90;;;;;;5073241;28;20506;-71
2023/07/04 07:46:40;;;;;;;15.25;10.95;;;28.10;99.90;;;;;;5081496;28;20439;-71
2023/07/04 07:49:07;;;;;;;15.77;11.07;;;28.20;99.90;;;;;;5078682;28;20409;-71
2023/07/04 07:51:34;;;;;;;14.35;11.40;;;28.30;99.90;;;;;;5064399;28;20406;-72
2023/07/04 07:54:02;;;;;;;13.53;10.53;;;28.30;99.90;;;;;;5079623;28;21122;-71
2023/07/04 07:56:39;;;;;;;14.73;11.73;;;28.30;99.90;;;;;;5075718;28;20476;-71
2023/07/04 07:59:06;;;;;;;15.68;11.20;;;28.30;99.90;;;;;;5087503;28;20895;-71
2023/07/04 08:01:34;;;;;;;14.88;10.75;;;28.50;99.90;;;;;;5072999;28;21021;-71
2023/07/04 08:04:02;;;;;;;12.87;10.47;;;28.50;99.90;;;;;;5061872;28;20392;-72
2023/07/04 08:06:39;;;;;;;13.20;10.65;;;28.50;99.90;;;;;;5082032;28;20436;-71
2023/07/04 08:09:10;;;;;;;15.38;11.43;;;28.60;99.90;;;;;;5077530;28;20404;-71
2023/07/04 08:11:39;;;;;;;14.80;11.05;;;28.60;99.90;;;;;;5076364;28;20411;-71
2023/07/04 08:14:07;;;;;;;14.85;11.35;;;28.70;99.90;;;;;;5074420;28;20930;-72
2023/07/04 08:16:53;;;;;;;16.20;11.10;;;28.70;99.90;;;;;;5066371;28;20418;-72
2023/07/04 08:19:25;;;;;;;13.30;10.68;;;28.90;99.90;;;;;;5070854;28;20428;-71
2023/07/04 08:21:54;;;;;;;17.55;11.07;;;29.00;99.90;;;;;;5065789;28;20421;-71
2023/07/04 08:24:20;;;;;;;12.67;10.23;;;29.10;99.90;;;;;;5078864;28;20479;-72
2023/07/04 08:26:47;;;;;;;13.32;10.68;;;29.30;99.90;;;;;;5080631;28;20966;-72
2023/07/04 08:29:15;;;;;;;12.07;9.87;;;29.40;99.90;;;;;;5090277;28;20406;-71
2023/07/04 08:31:42;;;;;;;14.75;10.45;;;29.50;99.90;;;;;;5072904;28;20441;-72
2023/07/04 08:34:11;;;;;;;12.43;9.70;;;29.40;99.90;;;;;;5058088;28;20405;-72
2023/07/04 08:36:39;;;;;;;11.77;9.65;;;29.30;99.90;;;;;;5069893;28;20421;-71
2023/07/04 08:39:06;;;;;;;13.57;9.75;;;29.30;99.90;;;;;;5082723;28;20431;-71
2023/07/04 08:41:56;;;;;;;14.50;9.48;;;29.30;99.90;;;;;;5100449;27;20500;-72
2023/07/04 08:44:46;;;;;;;11.18;9.10;;;29.40;99.90;;;;;;5071604;28;20403;-72
2023/07/04 08:47:17;;;;;;;14.55;8.50;;;29.60;99.90;;;;;;5079954;28;20398;-72
2023/07/04 08:49:49;;;;;;;12.43;8.68;;;29.60;99.90;;;;;;5080791;28;20409;-71
2023/07/04 08:52:54;;;;;;;12.07;8.43;;;29.60;99.90;;;;;;5083450;28;20407;-72
2023/07/04 08:55:23;;;;;;;12.45;8.63;;;29.60;99.90;;;;;;5105800;27;20918;-72
2023/07/04 08:58:00;;;;;;;11.85;8.35;;;29.50;99.90;;;;;;5072524;28;20423;-72
2023/07/04 09:00:30;;;;;;;10.38;7.90;;;29.70;99.90;;;;;;5082196;28;20540;-72
2023/07/04 09:03:40;;;;;;;10.50;8.30;;;29.80;99.90;;;;;;5099274;27;20423;-72
2023/07/04 09:06:23;;;;;;;11.37;8.23;;;29.80;99.90;;;;;;5078610;28;20412;-72
2023/07/04 09:09:07;;;;;;;12.83;8.17;;;29.80;99.90;;;;;;5086790;28;20473;-71
2023/07/04 09:11:34;;;;;;;13.88;8.55;;;29.80;99.90;;;;;;5078796;28;20419;-72
2023/07/04 09:14:18;;;;;;;11.20;7.50;;;29.80;99.90;;;;;;5078500;28;20447;-72
2023/07/04 09:16:47;;;;;;;12.43;7.25;;;30.00;99.90;;;;;;5062169;28;20422;-72
2023/07/04 09:19:19;;;;;;;11.32;7.57;;;30.00;99.90;;;;;;5067735;28;20474;-72
2023/07/04 09:21:46;;;;;;;11.35;7.32;;;29.90;99.90;;;;;;5048091;28;20756;-71
2023/07/04 09:24:13;;;;;;;10.32;6.95;;;29.90;99.90;;;;;;5090616;27;20479;-72
2023/07/04 09:26:54;;;;;;;11.45;7.22;;;29.90;99.90;;;;;;5077898;28;20411;-71
2023/07/04 09:29:24;;;;;;;13.73;7.50;;;30.10;99.90;;;;;;5060946;28;20470;-72
2023/07/04 09:31:57;;;;;;;11.25;7.25;;;30.20;99.90;;;;;;5070413;28;20427;-72
2023/07/04 09:34:47;;;;;;;14.05;7.50;;;30.30;99.90;;;;;;5074307;28;20500;-72
2023/07/04 09:37:17;;;;;;;10.45;7.38;;;30.30;99.90;;;;;;5091995;28;20410;-72
2023/07/04 09:39:57;;;;;;;10.93;6.90;;;30.40;99.90;;;;;;5065577;28;20510;-72
2023/07/04 09:42:43;;;;;;;11.75;7.30;;;30.50;99.90;;;;;;5053487;28;20778;-72
2023/07/04 09:45:20;;;;;;;12.07;7.45;;;30.40;99.90;;;;;;5069833;28;20417;-72
2023/07/04 09:47:47;;;;;;;10.13;7.30;;;30.40;99.90;;;;;;5101455;27;20454;-72
2023/07/04 09:50:33;;;;;;;11.48;7.20;;;30.50;99.90;;;;;;5069796;28;20407;-72
2023/07/04 09:53:10;;;;;;;9.77;6.80;;;30.30;99.90;;;;;;5104176;27;20418;-72
2023/07/04 09:55:39;;;;;;;11.93;6.78;;;30.50;99.90;;;;;;5070400;28;20497;-72
2023/07/04 09:58:25;;;;;;;9.85;7.15;;;30.70;99.90;;;;;;5079431;28;20432;-72
2023/07/04 10:01:15;;;;;;;14.77;7.50;;;30.80;99.90;;;;;;5075722;28;20421;-72
2023/07/04 10:03:45;;;;;;;9.00;7.10;;;30.90;99.90;;;;;;5074254;28;20411;-72
2023/07/04 10:06:29;;;;;;;11.57;7.10;;;30.80;99.90;;;;;;5070118;28;20414;-72
2023/07/04 10:08:57;;;;;;;11.50;6.90;;;30.90;99.90;;;;;;5054867;28;20543;-72
2023/07/04 10:11:34;;;;;;;12.65;7.03;;;31.00;99.90;;;;;;5084112;28;20423;-72
2023/07/04 10:14:08;;;;;;;12.65;7.20;;;31.10;99.90;;;;;;5103282;27;20449;-72
2023/07/04 10:16:37;;;;;;;12.17;7.00;;;31.00;99.90;;;;;;5070083;28;21197;-72
2023/07/04 10:19:16;;;;;;;10.23;6.82;;;31.10;99.90;;;;;;5064265;28;20413;-72
2023/07/04 10:21:50;;;;;;;8.93;6.90;;;31.00;99.90;;;;;;5065305;28;20410;-72
2023/07/04 10:24:22;;;;;;;9.45;6.68;;;30.90;99.90;;;;;;5081357;28;20912;-72
2023/07/04 10:26:59;;;;;;;11.10;6.78;;;31.10;99.90;;;;;;5093785;28;20394;-72
2023/07/04 10:29:37;;;;;;;9.13;6.53;;;31.10;99.90;;;;;;5064089;28;20415;-71
2023/07/04 10:32:09;;;;;;;13.53;6.93;;;31.00;99.90;;;;;;5076589;28;21092;-72
2023/07/04 10:34:37;;;;;;;12.90;6.97;;;31.00;99.90;;;;;;5077325;28;20407;-72
2023/07/04 10:37:05;;;;;;;11.97;6.57;;;31.10;99.90;;;;;;5073378;28;20414;-72
2023/07/04 10:39:37;;;;;;;12.95;6.90;;;31.00;99.90;;;;;;5078627;28;20423;-72
2023/07/04 10:42:24;;;;;;;11.97;6.50;;;30.90;99.90;;;;;;5070219;28;20429;-72
2023/07/04 10:44:56;;;;;;;11.85;6.50;;;31.00;99.90;;;;;;5071555;28;20493;-72
2023/07/04 10:47:35;;;;;;;16.58;6.50;;;31.00;99.90;;;;;;5092091;28;20475;-72
2023/07/04 10:50:22;;;;;;;9.13;6.28;;;30.90;99.90;;;;;;5106729;27;20418;-73
2023/07/04 10:52:50;;;;;;;13.95;6.53;;;30.90;99.90;;;;;;5066966;28;20425;-73
2023/07/04 10:55:42;;;;;;;11.63;6.40;;;30.90;99.90;;;;;;5074716;28;21173;-73
2023/07/04 10:58:18;;;;;;;10.27;6.57;;;30.90;99.90;;;;;;5079067;28;20447;-72
2023/07/04 11:01:13;;;;;;;10.32;6.38;;;30.90;99.90;;;;;;5073394;28;20409;-72
2023/07/04 11:03:51;;;;;;;9.15;6.50;;;30.90;99.90;;;;;;5067571;28;20485;-72
2023/07/04 11:06:52;;;;;;;10.82;6.32;;;30.90;99.90;;;;;;5069359;28;20421;-72
2023/07/04 11:09:20;;;;;;;9.45;5.97;;;30.80;99.90;;;;;;5069661;28;20502;-72
2023/07/04 11:11:50;;;;;;;11.85;6.28;;;30.60;99.90;;;;;;5085484;28;20415;-72
2023/07/04 11:14:29;;;;;;;11.40;6.60;;;30.60;99.90;;;;;;5074554;28;20419;-72
2023/07/04 11:17:04;;;;;;;10.50;6.40;;;30.70;99.90;;;;;;5071206;28;21079;-72
2023/07/04 11:19:35;;;;;;;10.68;6.22;;;30.90;99.90;;;;;;5099623;27;20446;-72
2023/07/04 11:22:03;;;;;;;13.00;6.90;;;30.80;99.90;;;;;;5079881;28;20444;-72
2023/07/04 11:24:43;;;;;;;9.35;6.68;;;30.70;99.90;;;;;;5075470;28;20415;-71
2023/07/04 11:27:20;;;;;;;10.00;6.43;;;30.70;99.90;;;;;;5070153;28;20522;-72
2023/07/04 11:30:02;;;;;;;12.88;6.63;;;30.80;99.90;;;;;;5084299;28;21047;-72
2023/07/04 11:32:37;;;;;;;10.60;6.70;;;30.80;99.90;;;;;;5076865;28;20417;-72
2023/07/04 11:35:09;;;;;;;10.52;6.88;;;30.90;99.90;;;;;;5100442;27;20464;-72
2023/07/04 11:38:02;;;;;;;11.27;7.07;;;30.80;99.90;;;;;;5074475;28;21556;-72
2023/07/04 11:40:55;;;;;;;12.68;6.60;;;30.70;99.90;;;;;;5104265;27;20480;-72
2023/07/04 11:43:29;;;;;;;10.32;6.90;;;30.80;99.90;;;;;;5100398;27;20493;-72
2023/07/04 11:46:00;;;;;;;12.30;6.47;;;30.80;99.90;;;;;;5053894;28;20458;-72
2023/07/04 11:48:31;;;;;;;11.32;6.63;;;30.90;99.90;;;;;;5059481;28;20530;-72
2023/07/04 11:51:10;;;;;;;11.18;6.90;;;30.80;99.90;;;;;;5078662;28;20419;-72
2023/07/04 11:53:48;;;;;;;8.77;6.05;;;30.80;99.90;;;;;;5105528;27;20416;-72
2023/07/04 11:56:24;;;;;;;10.90;6.73;;;30.80;99.90;;;;;;5073448;28;20815;-72
2023/07/04 11:59:12;;;;;;;11.63;6.80;;;30.80;99.90;;;;;;5075995;28;20438;-72
2023/07/04 12:01:55;;;;;;;9.73;6.47;;;30.80;99.90;;;;;;5075391;28;20557;-72
2023/07/04 12:04:48;;;;;;;9.80;6.50;;;30.80;99.90;;;;;;5074243;28;20417;-72
2023/07/04 12:07:47;;;;;;;11.15;7.15;;;30.80;99.90;;;;;;5076763;28;20410;-72
2023/07/04 12:10:22;;;;;;;11.75;6.63;;;30.80;99.90;;;;;;5074533;28;20415;-72
2023/07/04 12:13:03;;;;;;;11.13;6.65;;;30.80;99.90;;;;;;5073561;28;20420;-72
2023/07/04 12:15:34;;;;;;;11.98;7.22;;;30.80;99.90;;;;;;5084750;28;20431;-72
2023/07/04 12:18:15;;;;;;;15.00;6.70;;;30.70;99.90;;;;;;5083527;28;20454;-72
2023/07/04 12:20:44;;;;;;;12.00;7.05;;;30.80;99.90;;;;;;5073988;28;22576;-72
2023/07/04 12:23:11;;;;;;;10.40;7.03;;;30.80;99.90;;;;;;5064734;28;20488;-72
2023/07/04 12:25:51;;;;;;;10.32;6.88;;;30.90;99.90;;;;;;5071631;28;20411;-72
2023/07/04 12:28:24;;;;;;;14.35;7.10;;;30.80;99.90;;;;;;5070487;28;20403;-72
2023/07/04 12:30:58;;;;;;;13.18;7.00;;;30.60;99.90;;;;;;5066498;28;20526;-72
2023/07/04 12:33:30;;;;;;;11.95;7.03;;;30.60;99.90;;;;;;5072882;28;20944;-72
2023/07/04 12:36:09;;;;;;;9.55;7.10;;;30.60;99.90;;;;;;5077282;28;20403;-72
2023/07/04 12:38:53;;;;;;;17.05;7.07;;;30.50;99.90;;;;;;5065301;28;20924;-72
2023/07/04 12:41:30;;;;;;;9.38;6.72;;;30.50;99.90;;;;;;5078064;28;20420;-72
2023/07/04 12:44:02;;;;;;;12.43;6.78;;;30.50;99.90;;;;;;5078384;28;20464;-72
2023/07/04 12:46:32;;;;;;;11.30;6.78;;;30.50;99.90;;;;;;5049499;28;20407;-73
2023/07/04 12:49:00;;;;;;;9.40;6.60;;;30.60;99.90;;;;;;5078546;28;20474;-72
2023/07/04 12:51:30;;;;;;;11.25;6.95;;;30.60;99.90;;;;;;5073609;28;20415;-72
2023/07/04 12:54:02;;;;;;;13.55;6.95;;;30.50;99.90;;;;;;5061812;28;20481;-72
2023/07/04 12:56:30;;;;;;;11.75;7.22;;;30.50;99.90;;;;;;5072697;28;20424;-72